Time;durP1;ratioP1;P1;durP2;ratioP2;P2;SDS_P1;SDS_P2;PMS_P1;PMS_P2;Temp;Humidity;BMP_temperature;BMP_pressure;BME280_temperature;BME280_humidity;BME280_pressure;Samples;Min_cycle;Max_cycle;Signal;HPM_P1;HPM_P2
2023/03/26 09:11:36;;;;;;;6.10;2.40;;;;;;;6.28;95.63;95389.63;2087116;28;20662;-58
2023/03/26 09:12:44;;;;;;;11.40;3.35;;;;;;;6.95;94.28;95378.63;2081011;28;20191;-58
2023/03/26 09:14:03;;;;;;;20.20;3.38;;;;;;;7.27;93.64;95381.34;2080251;28;20247;-59
2023/03/26 09:15:26;;;;;;;16.08;5.25;;;;;;;7.50;90.73;95382.72;2076940;28;20228;-58
2023/03/26 09:16:43;;;;;;;13.57;4.70;;;;;;;7.76;90.98;95372.72;2072224;28;20237;-58
2023/03/26 09:18:16;;;;;;;19.80;3.47;;;;;;;7.37;91.27;95390.31;2073562;28;20198;-58
2023/03/26 09:19:40;;;;;;;9.30;2.30;;;;;;;7.17;92.04;95379.22;2073028;28;20239;-59
2023/03/26 09:24:09;;;;;;;7.00;1.92;;;;;;;7.15;91.87;95369.84;2089731;27;20565;-62
2023/03/26 09:33:34;;;;;;;5.50;1.98;;;;;;;6.93;95.47;95370.94;2083864;28;20578;-62
2023/03/26 09:38:44;;;;;;;11.63;2.75;;;;;;;6.86;94.16;95367.78;2082706;28;20593;-58
2023/03/26 09:39:55;;;;;;;7.15;2.08;;;;;;;7.29;93.18;95385.53;2080225;28;20302;-62
2023/03/26 09:41:15;;;;;;;10.38;2.35;;;;;;;7.64;92.94;95388.03;2076335;28;20285;-62
2023/03/26 09:42:35;;;;;;;9.55;2.80;;;;;;;8.11;92.31;95385.53;2076978;28;20216;-62
2023/03/26 09:43:57;;;;;;;5.38;2.00;;;;;;;8.13;89.76;95381.13;2076784;28;20282;-62
2023/03/26 09:45:21;;;;;;;7.65;2.40;;;;;;;8.25;91.11;95379.59;2072826;28;20220;-62
2023/03/26 09:46:41;;;;;;;6.63;2.10;;;;;;;8.16;91.26;95376.59;2076144;28;20204;-62
2023/03/26 09:47:48;;;;;;;6.18;1.80;;;;;;;7.98;90.03;95375.81;2076605;28;20645;-62
2023/03/26 09:49:01;;;;;;;6.55;1.75;;;;;;;8.16;91.34;95380.94;2076401;28;21153;-62
2023/03/26 09:50:25;;;;;;;6.07;1.95;;;;;;;8.20;89.64;95385.03;2075817;28;20767;-64
2023/03/26 09:51:50;;;;;;;8.35;3.22;;;;;;;8.12;88.98;95377.66;2075847;28;20197;-63
2023/03/26 09:53:26;;;;;;;8.65;3.55;;;;;;;8.00;89.09;95386.16;2076966;28;20215;-62
2023/03/26 09:55:07;;;;;;;20.02;10.15;;;;;;;8.01;89.45;95380.88;2077117;28;20225;-62
2023/03/26 09:56:29;;;;;;;5.25;2.28;;;;;;;8.17;91.15;95380.00;2077154;28;20268;-64
2023/03/26 09:58:09;;;;;;;13.27;1.95;;;;;;;8.24;90.38;95380.50;2076191;28;20209;-64
2023/03/26 09:59:44;;;;;;;4.45;1.60;;;;;;;9.03;86.13;95370.84;2068052;28;20209;-64
2023/03/26 10:01:04;;;;;;;6.43;1.85;;;;;;;10.23;83.08;95367.94;2067597;28;20221;-64
2023/03/26 10:02:24;;;;;;;3.63;1.40;;;;;;;11.71;77.65;95366.00;2068780;28;20201;-64
2023/03/26 10:04:30;;;;;;;6.53;1.17;;;;;;;12.27;68.80;95361.31;2068611;28;20201;-64
2023/03/26 10:05:37;;;;;;;3.30;1.65;;;;;;;12.74;70.70;95372.72;2066804;28;20819;-64
2023/03/26 10:06:55;;;;;;;3.50;1.30;;;;;;;12.44;67.96;95357.47;2067991;28;20198;-65
2023/03/26 10:08:22;;;;;;;5.90;1.40;;;;;;;12.88;67.36;95371.69;2068601;28;21520;-65
2023/03/26 10:09:51;;;;;;;5.45;1.15;;;;;;;12.68;65.12;95363.50;2067633;28;20199;-64
2023/03/26 10:11:12;;;;;;;2.85;1.00;;;;;;;12.01;66.79;95346.53;2068251;28;20233;-64
2023/03/26 10:12:36;;;;;;;5.70;1.13;;;;;;;11.73;65.25;95355.44;2067630;28;20695;-64
2023/03/26 10:14:04;;;;;;;3.50;1.20;;;;;;;11.79;67.21;95367.25;2068473;28;20202;-64
2023/03/26 10:15:33;;;;;;;5.13;1.67;;;;;;;11.43;68.42;95365.28;2067633;28;20848;-64
2023/03/26 10:17:06;;;;;;;2.33;1.08;;;;;;;11.64;66.28;95366.53;2067511;28;20198;-64
2023/03/26 10:18:25;;;;;;;8.07;1.38;;;;;;;11.24;65.80;95360.47;2067718;28;20238;-64
2023/03/26 10:19:36;;;;;;;4.47;1.48;;;;;;;11.88;65.96;95361.38;2068815;28;20285;-64
2023/03/26 10:20:59;;;;;;;11.35;1.50;;;;;;;12.72;62.84;95358.88;2068325;28;20230;-64
2023/03/26 10:22:08;;;;;;;4.13;1.27;;;;;;;12.31;64.26;95357.50;2068410;28;20198;-64
2023/03/26 10:23:24;;;;;;;2.60;1.10;;;;;;;11.63;65.12;95363.09;2067324;28;20225;-64
2023/03/26 10:25:03;;;;;;;4.15;1.67;;;;;;;11.56;66.19;95357.44;2068238;28;20216;-63
2023/03/26 10:26:20;;;;;;;4.32;1.20;;;;;;;11.41;68.50;95361.97;2064321;28;20225;-64
2023/03/26 10:27:40;;;;;;;3.92;0.90;;;;;;;11.78;64.71;95361.16;2067669;28;20225;-64
2023/03/26 10:28:53;;;;;;;2.85;1.27;;;;;;;11.38;67.44;95367.38;2067522;28;20248;-64
2023/03/26 10:30:27;;;;;;;4.78;1.30;;;;;;;11.95;65.24;95365.22;2067186;28;20209;-64
2023/03/26 10:31:33;;;;;;;6.88;1.00;;;;;;;11.77;63.12;95349.88;2066820;28;20802;-64
2023/03/26 10:32:56;;;;;;;4.72;1.00;;;;;;;11.17;67.01;95363.63;2066962;28;20198;-64
2023/03/26 10:34:34;;;;;;;3.35;1.10;;;;;;;10.36;68.20;95357.56;2070721;28;20205;-63
2023/03/26 10:36:01;;;;;;;7.28;1.55;;;;;;;10.41;66.63;95368.56;2077882;28;20228;-63
2023/03/26 10:37:12;;;;;;;4.38;2.42;;;;;;;11.67;64.90;95371.53;2077196;28;20232;-63
2023/03/26 10:38:40;;;;;;;3.65;1.58;;;;;;;11.36;63.93;95363.19;2076607;28;20778;-63
2023/03/26 10:39:48;;;;;;;5.63;1.80;;;;;;;11.47;65.83;95357.25;2075614;28;20197;-65
2023/03/26 10:41:15;;;;;;;1.50;0.80;;;;;;;11.27;65.23;95367.28;2076702;28;20205;-64
2023/03/26 10:42:39;;;;;;;2.85;1.20;;;;;;;10.42;66.88;95370.22;2076976;28;20197;-64
2023/03/26 10:43:50;;;;;;;3.97;1.40;;;;;;;10.08;67.09;95362.75;2076207;28;20246;-64
2023/03/26 10:45:29;;;;;;;1.98;1.00;;;;;;;9.84;67.40;95367.75;2076148;28;20217;-64
2023/03/26 10:46:53;;;;;;;5.28;1.95;;;;;;;10.20;67.25;95361.13;2076926;28;20205;-64
2023/03/26 10:48:15;;;;;;;6.93;1.60;;;;;;;10.45;67.26;95354.38;2076511;28;20221;-64
2023/03/26 10:49:55;;;;;;;3.70;1.17;;;;;;;10.86;65.04;95363.06;2072111;28;20702;-63
2023/03/26 10:51:05;;;;;;;3.75;1.00;;;;;;;12.14;61.66;95359.56;2070764;28;20235;-63
2023/03/26 10:52:14;;;;;;;3.45;1.35;;;;;;;11.06;62.42;95359.13;2070114;28;20624;-63
2023/03/26 10:53:33;;;;;;;5.93;1.10;;;;;;;10.44;63.83;95356.16;2069610;28;20205;-63
2023/03/26 10:54:53;;;;;;;5.57;1.10;;;;;;;10.87;64.89;95347.28;2071835;28;20201;-63
2023/03/26 10:56:05;;;;;;;3.13;1.00;;;;;;;10.84;63.86;95344.03;2069556;28;20762;-63
2023/03/26 10:57:37;;;;;;;5.57;1.02;;;;;;;11.73;60.33;95350.19;2069491;28;20236;-63
2023/03/26 10:58:39;;;;;;;5.32;1.70;;;;;;;10.75;63.09;95351.56;2069159;28;20217;-63
2023/03/26 10:59:54;;;;;;;5.05;1.60;;;;;;;11.08;62.79;95352.00;2070852;28;20201;-63
2023/03/26 11:01:00;;;;;;;7.88;1.20;;;;;;;11.55;60.35;95347.09;2071665;28;20245;-63
2023/03/26 11:02:20;;;;;;;4.68;1.50;;;;;;;12.23;58.53;95342.38;2071746;28;20194;-64
2023/03/26 11:03:53;;;;;;;4.00;1.55;;;;;;;13.47;56.77;95343.72;2069745;28;20236;-64
2023/03/26 11:05:26;;;;;;;3.70;1.27;;;;;;;14.18;54.99;95338.19;2069201;28;20206;-64
2023/03/26 11:06:48;;;;;;;1.63;0.80;;;;;;;13.59;55.68;95339.34;2070563;28;20318;-64
2023/03/26 11:08:09;;;;;;;2.75;0.70;;;;;;;13.42;56.63;95338.88;2070742;28;20202;-64
2023/03/26 11:09:27;;;;;;;4.70;1.00;;;;;;;13.64;53.76;95345.06;2070694;28;20256;-63
2023/03/26 11:10:34;;;;;;;2.97;1.30;;;;;;;13.30;52.07;95331.91;2070634;28;20229;-64
2023/03/26 11:11:46;;;;;;;3.17;1.40;;;;;;;12.94;53.50;95337.19;2071129;28;20676;-63
2023/03/26 11:13:11;;;;;;;4.07;1.10;;;;;;;12.97;54.42;95341.34;2071957;28;20427;-63
2023/03/26 11:14:23;;;;;;;2.95;1.20;;;;;;;12.58;55.67;95344.19;2071570;28;20704;-63
2023/03/26 11:15:40;;;;;;;6.07;1.40;;;;;;;13.07;53.57;95350.19;2071175;28;20680;-63
2023/03/26 11:16:59;;;;;;;3.85;1.10;;;;;;;13.14;53.09;95347.94;2074590;28;20197;-63
2023/03/26 11:18:42;;;;;;;5.72;1.30;;;;;;;13.22;52.54;95335.94;2066131;28;20689;-64
2023/03/26 11:19:47;;;;;;;6.65;1.33;;;;;;;13.07;52.59;95331.84;2060678;28;20198;-63
2023/03/26 11:21:09;;;;;;;4.70;1.17;;;;;;;13.49;53.70;95337.41;2063298;28;20210;-63
2023/03/26 11:22:39;;;;;;;4.30;1.52;;;;;;;14.23;51.92;95343.09;2065704;28;20207;-64
2023/03/26 11:24:10;;;;;;;3.30;0.90;;;;;;;12.84;53.40;95339.66;2066642;28;20197;-63
2023/03/26 11:25:36;;;;;;;7.45;1.58;;;;;;;13.08;53.59;95338.78;2022869;29;20503;-63
2023/03/26 11:26:55;;;;;;;5.28;1.67;;;;;;;12.13;55.77;95329.09;2064096;28;20205;-63
2023/03/26 11:28:11;;;;;;;7.20;1.73;;;;;;;12.16;57.18;95339.34;2063861;28;20579;-63
2023/03/26 11:29:26;;;;;;;4.60;1.00;;;;;;;12.10;55.96;95326.72;2064847;28;20229;-63
2023/03/26 11:30:45;;;;;;;3.50;1.20;;;;;;;12.38;56.71;95324.72;2062139;28;20229;-63
2023/03/26 11:31:55;;;;;;;3.42;1.75;;;;;;;11.97;57.08;95337.19;2063010;28;20209;-63
2023/03/26 11:33:04;;;;;;;5.18;1.63;;;;;;;12.04;56.50;95330.59;2064943;28;20823;-64
2023/03/26 11:34:12;;;;;;;13.63;2.65;;;;;;;11.83;57.18;95334.69;2063028;28;20209;-64
2023/03/26 11:35:25;;;;;;;5.78;2.05;;;;;;;12.52;54.30;95329.78;2064261;28;20226;-63
2023/03/26 11:36:47;;;;;;;3.10;0.90;;;;;;;11.93;54.50;95328.72;2063615;28;20234;-63
2023/03/26 11:37:53;;;;;;;2.65;0.85;;;;;;;11.43;55.10;95335.72;2063676;28;20297;-63
2023/03/26 11:38:59;;;;;;;3.53;1.00;;;;;;;11.48;56.22;95323.16;2056919;28;20654;-63
2023/03/26 11:40:05;;;;;;;5.18;1.48;;;;;;;11.35;58.21;95338.00;2055747;28;20200;-63
2023/03/26 11:41:19;;;;;;;2.33;0.95;;;;;;;11.36;59.29;95324.81;2063606;28;20663;-63
2023/03/26 11:42:24;;;;;;;2.15;0.90;;;;;;;11.20;61.23;95343.34;2064128;28;20396;-63
2023/03/26 11:43:33;;;;;;;2.60;1.23;;;;;;;10.90;60.23;95335.78;2062328;28;20241;-63
2023/03/26 11:44:42;;;;;;;4.20;0.80;;;;;;;10.61;60.64;95351.59;2062640;28;20380;-63
2023/03/26 11:45:46;;;;;;;1.92;1.13;;;;;;;10.41;63.00;95351.13;2064127;28;20780;-63
2023/03/26 11:46:57;;;;;;;13.13;6.10;;;;;;;10.64;66.94;95359.25;2064299;28;20209;-63
2023/03/26 11:48:31;;;;;;;8.35;3.85;;;;;;;10.58;70.86;95363.09;2063505;28;20336;-63
2023/03/26 11:49:32;;;;;;;15.18;7.15;;;;;;;9.93;74.57;95374.16;2062458;28;20205;-64
2023/03/26 11:50:40;;;;;;;17.92;6.78;;;;;;;9.84;75.67;95369.50;2063077;28;20225;-64
2023/03/26 11:51:46;;;;;;;14.25;6.57;;;;;;;9.75;78.29;95357.88;2067988;28;20201;-63
2023/03/26 11:52:48;;;;;;;42.65;19.33;;;;;;;9.37;78.22;95338.44;2069905;28;20225;-63
2023/03/26 11:53:50;;;;;;;18.02;7.65;;;;;;;9.43;75.40;95351.09;2063174;28;20601;-63
2023/03/26 11:54:52;;;;;;;25.35;8.80;;;;;;;9.68;73.17;95346.16;2060462;28;20665;-63
2023/03/26 11:56:03;;;;;;;27.13;12.00;;;;;;;9.69;74.18;95345.19;2065478;28;20614;-63
2023/03/26 11:57:14;;;;;;;3.25;1.10;;;;;;;9.64;71.24;95337.69;2071596;28;20202;-63
2023/03/26 11:58:44;;;;;;;16.58;5.03;;;;;;;11.36;69.88;95327.44;2069474;28;20202;-64
2023/03/26 11:59:56;;;;;;;50.47;22.10;;;;;;;12.62;66.90;95337.81;2071503;28;20197;-64
2023/03/26 12:01:03;;;;;;;29.08;12.05;;;;;;;13.45;67.47;95340.41;2069482;28;20198;-64
2023/03/26 12:02:11;;;;;;;62.10;24.20;;;;;;;13.12;69.67;95345.44;2071016;28;20251;-64
2023/03/26 12:03:14;;;;;;;31.13;13.48;;;;;;;14.07;66.76;95349.56;2070522;28;20673;-64
2023/03/26 12:04:23;;;;;;;67.00;27.77;;;;;;;13.47;66.51;95347.22;2070863;28;20348;-64
2023/03/26 12:05:30;;;;;;;6.18;2.17;;;;;;;13.14;68.17;95343.56;2070397;28;20276;-64
2023/03/26 12:06:31;;;;;;;19.13;8.63;;;;;;;13.28;66.16;95346.91;2069694;28;20197;-64
2023/03/26 12:07:34;;;;;;;11.52;3.72;;;;;;;12.78;68.48;95334.88;2071114;28;20285;-64
2023/03/26 12:08:40;;;;;;;22.15;5.03;;;;;;;11.94;69.01;95347.84;2071631;28;20202;-64
2023/03/26 12:09:52;;;;;;;27.20;11.85;;;;;;;11.68;70.58;95345.31;2070278;28;20194;-64
2023/03/26 12:11:07;;;;;;;23.10;10.75;;;;;;;11.81;69.77;95336.56;2069395;28;20201;-64
2023/03/26 12:12:10;;;;;;;34.13;13.95;;;;;;;11.64;70.22;95338.59;2069076;28;20608;-64
2023/03/26 12:13:36;;;;;;;90.45;36.85;;;;;;;11.55;70.94;95347.09;2069102;28;20228;-64
2023/03/26 12:14:41;;;;;;;73.60;29.30;;;;;;;11.26;71.72;95336.84;2070374;28;20201;-63
2023/03/26 12:15:43;;;;;;;19.13;6.50;;;;;;;11.07;72.15;95332.88;2069004;28;20263;-64
2023/03/26 12:16:58;;;;;;;26.42;10.98;;;;;;;10.89;71.76;95349.78;2079351;28;20265;-64
2023/03/26 12:18:22;;;;;;;83.07;32.83;;;;;;;10.72;72.62;95343.91;2070997;28;20259;-64
2023/03/26 12:19:25;;;;;;;64.13;25.70;;;;;;;10.66;72.54;95343.47;2069743;28;20217;-63
2023/03/26 12:20:32;;;;;;;91.90;39.15;;;;;;;11.18;70.26;95358.28;2070552;28;20256;-64
2023/03/26 12:21:48;;;;;;;42.30;18.38;;;;;;;12.67;67.46;95355.78;2070489;28;20209;-64
2023/03/26 12:22:51;;;;;;;22.30;8.60;;;;;;;12.96;65.74;95345.75;2068751;28;20212;-64
2023/03/26 12:23:56;;;;;;;7.15;1.95;;;;;;;13.51;65.06;95353.88;2068982;28;20210;-64
2023/03/26 12:25:19;;;;;;;18.05;4.75;;;;;;;13.66;63.37;95340.53;2069443;28;20206;-64
2023/03/26 12:26:38;;;;;;;7.32;2.17;;;;;;;13.75;63.32;95352.09;2070031;28;20217;-64
2023/03/26 12:27:49;;;;;;;5.78;2.78;;;;;;;13.41;63.14;95344.19;2070058;28;20202;-64
2023/03/26 12:28:50;;;;;;;54.00;21.40;;;;;;;13.08;65.04;95336.16;2070470;28;20866;-61
2023/03/26 12:30:09;;;;;;;102.97;38.50;;;;;;;12.86;65.65;95327.28;2070007;28;20229;-61
2023/03/26 12:31:16;;;;;;;179.30;69.30;;;;;;;12.92;65.85;95339.06;2071085;28;20209;-64
2023/03/26 12:32:18;;;;;;;67.38;26.60;;;;;;;12.95;65.63;95335.38;2071247;28;20208;-64
2023/03/26 12:33:32;;;;;;;59.78;24.55;;;;;;;12.62;65.98;95332.56;2070286;28;20244;-64
2023/03/26 12:34:38;;;;;;;85.28;29.50;;;;;;;12.08;65.59;95337.28;2070249;28;20204;-64
2023/03/26 12:35:39;;;;;;;119.68;47.75;;;;;;;11.85;65.13;95331.03;2070266;28;20252;-63
2023/03/26 12:36:48;;;;;;;62.92;26.73;;;;;;;11.67;66.34;95330.56;2068395;28;20248;-64
2023/03/26 12:37:50;;;;;;;301.92;122.68;;;;;;;11.65;66.58;95334.22;2071106;28;20238;-64
2023/03/26 12:38:52;;;;;;;61.50;25.63;;;;;;;11.73;66.55;95335.34;2070293;28;20216;-63
2023/03/26 12:40:35;;;;;;;19.83;6.65;;;;;;;11.55;66.22;95327.03;2070249;28;20221;-64
2023/03/26 12:41:40;;;;;;;20.35;8.30;;;;;;;11.53;66.21;95328.91;2069708;28;20202;-64
2023/03/26 12:43:29;;;;;;;22.80;7.10;;;;;;;12.21;66.47;95325.94;2070404;28;20205;-64
2023/03/26 12:44:54;;;;;;;100.20;38.53;;;;;;;11.98;64.79;95315.31;2069838;28;20297;-64
2023/03/26 12:46:00;;;;;;;9.95;3.80;;;;;;;12.13;64.34;95312.56;2069591;28;20198;-64
2023/03/26 12:47:26;;;;;;;49.05;18.17;;;;;;;11.90;64.10;95313.22;2071003;28;20255;-64
2023/03/26 12:48:50;;;;;;;54.63;23.48;;;;;;;11.75;64.42;95309.91;2071326;28;20236;-64
2023/03/26 12:49:53;;;;;;;108.60;42.25;;;;;;;11.67;64.21;95303.56;2069011;28;20407;-64
2023/03/26 12:51:08;;;;;;;26.98;8.85;;;;;;;11.41;63.88;95301.84;2071399;28;20244;-64
2023/03/26 12:52:39;;;;;;;89.88;33.22;;;;;;;11.47;64.85;95295.34;2069366;28;20197;-64
2023/03/26 12:53:46;;;;;;;34.90;12.07;;;;;;;11.81;64.26;95295.59;2071122;28;20226;-64
2023/03/26 12:54:56;;;;;;;22.20;8.93;;;;;;;11.72;63.66;95296.25;2070462;28;20205;-64
2023/03/26 12:56:00;;;;;;;15.02;3.90;;;;;;;11.90;63.03;95294.09;2070548;28;20201;-64
2023/03/26 12:57:19;;;;;;;27.38;11.00;;;;;;;11.93;63.23;95293.88;2069331;28;20208;-64
2023/03/26 12:58:50;;;;;;;33.80;12.55;;;;;;;12.08;62.84;95284.13;2069706;28;20201;-64
2023/03/26 13:00:11;;;;;;;28.48;10.48;;;;;;;12.16;63.38;95289.63;2069832;28;20237;-64
2023/03/26 13:01:34;;;;;;;7.63;1.40;;;;;;;11.75;61.65;95296.84;2070562;28;20280;-64
2023/03/26 13:02:39;;;;;;;21.98;7.85;;;;;;;11.70;61.59;95293.72;2069064;28;20208;-64
2023/03/26 13:04:17;;;;;;;34.67;14.82;;;;;;;11.53;59.96;95302.75;2071347;28;20240;-63
2023/03/26 13:05:31;;;;;;;52.20;19.45;;;;;;;11.83;62.68;95298.91;2069002;28;20904;-64
2023/03/26 13:06:44;;;;;;;40.00;13.23;;;;;;;11.74;63.61;95300.44;2068210;28;20201;-64
2023/03/26 13:08:13;;;;;;;18.75;6.03;;;;;;;12.11;63.24;95298.75;2070158;28;20601;-64
2023/03/26 13:10:10;;;;;;;10.70;4.30;;;;;;;11.93;62.83;95299.94;2070941;28;20277;-64
2023/03/26 13:11:16;;;;;;;22.05;7.90;;;;;;;11.91;63.15;95301.84;2036358;29;20239;-64
2023/03/26 13:12:58;;;;;;;17.25;5.85;;;;;;;11.73;62.89;95298.75;2046220;28;20659;-64
2023/03/26 13:14:27;;;;;;;47.33;16.40;;;;;;;11.80;62.26;95296.53;2071487;28;20205;-64
2023/03/26 13:15:37;;;;;;;90.60;33.47;;;;;;;11.80;62.86;95288.69;2077943;28;20229;-64
2023/03/26 13:16:48;;;;;;;78.90;40.10;;;;;;;12.17;61.51;95286.06;2075458;28;20197;-64
2023/03/26 13:18:01;;;;;;;9.07;4.15;;;;;;;12.26;60.96;95284.56;2068549;28;20288;-64
2023/03/26 13:19:12;;;;;;;3.10;1.35;;;;;;;12.06;60.16;95293.84;2070031;28;20232;-64
2023/03/26 13:20:28;;;;;;;6.50;1.25;;;;;;;12.05;60.94;95266.03;2067551;28;20214;-64
2023/03/26 13:21:51;;;;;;;8.95;2.33;;;;;;;12.19;60.39;95270.25;2070242;28;20648;-64
2023/03/26 13:23:08;;;;;;;6.53;3.90;;;;;;;12.45;60.31;95280.59;2069542;28;20826;-64
2023/03/26 13:24:32;;;;;;;6.95;2.97;;;;;;;12.30;59.80;95270.28;2069742;28;20589;-64
2023/03/26 13:26:03;;;;;;;5.53;2.55;;;;;;;12.30;60.56;95269.47;2070469;28;20455;-69
2023/03/26 13:27:38;;;;;;;7.80;1.50;;;;;;;12.43;61.83;95280.72;2069292;28;20202;-63
2023/03/26 13:28:51;;;;;;;9.23;2.75;;;;;;;12.45;62.64;95276.19;2069724;28;20230;-63
2023/03/26 13:30:14;;;;;;;5.70;1.65;;;;;;;12.05;62.29;95272.09;2067697;28;20321;-62
2023/03/26 13:31:33;;;;;;;8.82;2.95;;;;;;;11.94;62.62;95269.38;2069466;28;20267;-62
2023/03/26 13:32:41;;;;;;;5.85;1.48;;;;;;;11.87;62.62;95270.75;2069357;28;20232;-63
2023/03/26 13:34:09;;;;;;;5.13;1.38;;;;;;;11.85;62.76;95276.09;2069746;28;20292;-63
2023/03/26 13:35:23;;;;;;;4.60;1.60;;;;;;;11.86;61.10;95271.69;2064110;28;20222;-63
2023/03/26 13:36:50;;;;;;;8.15;1.50;;;;;;;11.80;61.99;95262.53;2063151;28;20255;-61
2023/03/26 13:38:19;;;;;;;4.30;1.48;;;;;;;11.71;61.59;95264.00;2060721;28;20231;-61
2023/03/26 13:39:36;;;;;;;7.80;1.80;;;;;;;11.69;60.23;95265.06;2061163;28;20658;-61
2023/03/26 13:41:09;;;;;;;9.68;1.40;;;;;;;11.70;61.67;95270.19;2060792;28;20304;-61
2023/03/26 13:42:25;;;;;;;11.60;1.40;;;;;;;11.78;61.72;95269.63;2062168;28;20581;-61
2023/03/26 13:43:52;;;;;;;15.75;2.03;;;;;;;11.67;60.73;95266.94;2062846;28;20198;-61
2023/03/26 13:45:21;;;;;;;4.10;1.10;;;;;;;11.71;60.81;95269.25;2062374;28;20204;-61
2023/03/26 13:46:25;;;;;;;2.10;0.90;;;;;;;11.53;56.15;95263.53;2062551;28;20202;-61
2023/03/26 13:47:35;;;;;;;5.13;1.17;;;;;;;11.43;56.70;95259.91;2061912;28;20194;-61
2023/03/26 13:48:49;;;;;;;6.50;1.20;;;;;;;11.27;54.69;95260.97;2062019;28;20198;-61
2023/03/26 13:50:18;;;;;;;6.03;1.20;;;;;;;11.23;54.64;95258.69;2054727;28;21142;-61
2023/03/26 13:51:26;;;;;;;5.60;1.42;;;;;;;11.22;54.75;95267.47;2060914;28;20522;-60
2023/03/26 13:52:51;;;;;;;6.05;1.38;;;;;;;10.97;53.00;95263.06;2053403;28;20621;-61
2023/03/26 13:54:14;;;;;;;3.58;1.05;;;;;;;10.99;53.76;95267.25;2055996;28;20217;-62
2023/03/26 13:55:26;;;;;;;4.40;1.00;;;;;;;11.09;57.59;95262.25;2062042;28;20229;-61
2023/03/26 13:56:35;;;;;;;3.75;1.08;;;;;;;11.10;60.71;95264.75;2061452;28;20210;-61
2023/03/26 13:57:41;;;;;;;3.15;1.42;;;;;;;10.90;60.13;95266.09;2060351;28;20202;-61
2023/03/26 13:58:49;;;;;;;3.35;1.30;;;;;;;11.00;61.30;95261.09;2062050;28;20202;-61
2023/03/26 14:00:11;;;;;;;4.03;1.02;;;;;;;10.95;60.63;95271.03;2061683;28;20238;-61
2023/03/26 14:01:21;;;;;;;8.40;1.27;;;;;;;10.85;60.64;95268.19;2062330;28;20294;-60
2023/03/26 14:02:34;;;;;;;3.95;1.60;;;;;;;10.73;57.97;95267.25;2061441;28;20228;-61
2023/03/26 14:03:48;;;;;;;4.00;1.45;;;;;;;10.57;57.62;95264.81;2062690;28;20227;-60
2023/03/26 14:05:03;;;;;;;3.33;1.10;;;;;;;10.51;56.27;95265.22;2060684;28;20801;-60
2023/03/26 14:06:40;;;;;;;2.55;1.10;;;;;;;10.47;56.33;95268.16;2061426;28;20206;-61
2023/03/26 14:07:49;;;;;;;2.72;0.90;;;;;;;10.38;56.36;95269.59;2049836;28;20679;-62
2023/03/26 14:08:58;;;;;;;3.95;0.90;;;;;;;10.28;56.44;95253.66;2059336;28;20670;-62
2023/03/26 14:10:21;;;;;;;3.17;0.80;;;;;;;10.23;56.68;95264.44;2061762;28;20229;-62
2023/03/26 14:11:41;;;;;;;7.32;1.30;;;;;;;10.27;57.36;95275.47;2062853;28;20208;-62
2023/03/26 14:12:58;;;;;;;3.05;0.80;;;;;;;10.10;57.78;95264.38;2061714;28;20206;-62
2023/03/26 14:14:06;;;;;;;3.40;0.80;;;;;;;9.95;58.16;95274.03;2061957;28;20605;-61
